Time;durP1;ratioP1;P1;durP2;ratioP2;P2;SDS_P1;SDS_P2;PMS_P1;PMS_P2;Temp;Humidity;BMP_temperature;BMP_pressure;BME280_temperature;BME280_humidity;BME280_pressure;Samples;Min_cycle;Max_cycle;Signal;HPM_P1;HPM_P2
2021/11/05 00:01:46;;;;;;;;;7.00;7.00;;;;;19.36;46.45;101014.97;5058756;28;61198;-77
2021/11/05 00:04:14;;;;;;;;;6.50;6.50;;;;;19.36;46.38;101020.28;5059528;28;45404;-77
2021/11/05 00:06:39;;;;;;;;;5.00;5.00;;;;;19.32;46.50;101021.25;5059342;28;45427;-77
2021/11/05 00:09:07;;;;;;;;;7.00;6.00;;;;;19.26;46.48;101004.63;5059744;28;45343;-77
2021/11/05 00:11:39;;;;;;;;;5.75;4.50;;;;;19.37;46.55;101021.13;5060452;28;46020;-77
2021/11/05 00:14:04;;;;;;;;;6.25;4.75;;;;;19.38;46.58;101033.50;5043635;28;45466;-77
2021/11/05 00:16:32;;;;;;;;;7.75;6.00;;;;;19.34;46.56;101032.66;5059294;28;45560;-77
2021/11/05 00:19:03;;;;;;;;;6.00;6.00;;;;;19.33;46.91;101032.72;5059272;28;45461;-77
2021/11/05 00:21:32;;;;;;;;;5.75;4.00;;;;;19.28;46.29;101030.16;5058868;28;46389;-77
2021/11/05 00:23:58;;;;;;;;;4.50;3.75;;;;;19.31;46.98;101039.81;5060635;28;45175;-77
2021/11/05 00:26:23;;;;;;;;;7.50;7.00;;;;;19.34;46.91;101037.09;5059341;28;45476;-77
2021/11/05 00:28:52;;;;;;;;;7.25;5.25;;;;;19.35;47.01;101041.47;5059178;28;45500;-77
2021/11/05 00:32:00;;;;;;;;;5.00;5.00;;;;;19.28;46.60;101024.00;5058409;28;46844;-77
2021/11/05 00:34:38;;;;;;;;;6.25;6.25;;;;;19.28;46.57;101019.56;5042441;28;45544;-77
2021/11/05 00:37:06;;;;;;;;;5.50;5.50;;;;;19.28;46.24;101027.50;5075517;28;45327;-77
2021/11/05 00:39:31;;;;;;;;;6.00;4.75;;;;;19.37;46.44;101042.31;5058902;28;45409;-77
2021/11/05 00:41:57;;;;;;;;;5.00;5.00;;;;;19.34;46.81;101040.63;5060148;28;50569;-77
2021/11/05 00:44:22;;;;;;;;;5.75;4.25;;;;;19.38;46.37;101037.00;5025628;28;45710;-77
2021/11/05 00:46:50;;;;;;;;;6.50;6.50;;;;;19.39;46.22;101043.16;5050807;28;45498;-77
2021/11/05 00:49:15;;;;;;;;;6.50;6.50;;;;;19.33;46.76;101035.34;5046942;28;45802;-77
2021/11/05 00:51:41;;;;;;;;;4.50;4.25;;;;;19.40;46.54;101043.13;5075477;28;47054;-77
2021/11/05 00:54:08;;;;;;;;;3.00;3.00;;;;;19.41;45.82;101052.81;5041907;28;45445;-77
2021/11/05 00:56:33;;;;;;;;;4.25;4.25;;;;;19.41;45.89;101059.88;5060190;28;45465;-77
2021/11/05 00:58:59;;;;;;;;;5.75;4.75;;;;;19.40;45.99;101066.94;5059937;28;45242;-77
2021/11/05 01:01:24;;;;;;;;;6.00;6.00;;;;;19.33;46.31;101062.69;5058419;28;47234;-77
2021/11/05 01:03:50;;;;;;;;;5.00;5.00;;;;;19.36;46.33;101074.97;5041974;28;46201;-77
2021/11/05 01:06:17;;;;;;;;;4.25;3.75;;;;;19.33;46.11;101077.69;5075397;28;45460;-77
2021/11/05 01:08:43;;;;;;;;;4.25;4.25;;;;;19.32;46.29;101082.13;5042746;28;45606;-77
2021/11/05 01:11:08;;;;;;;;;4.00;4.00;;;;;19.29;46.14;101076.03;5041592;28;48283;-77
2021/11/05 01:13:34;;;;;;;;;6.75;5.75;;;;;19.31;46.35;101079.53;5025089;28;45517;-77
2021/11/05 01:15:59;;;;;;;;;6.25;5.00;;;;;19.26;46.18;101079.59;5049051;28;45949;-77
2021/11/05 01:21:46;;;;;;;;;5.00;5.00;;;;;19.16;46.77;101073.63;5050833;28;45809;-77
2021/11/05 01:24:12;;;;;;;;;6.75;4.00;;;;;19.24;46.25;101085.84;5024872;28;45637;-77
2021/11/05 01:26:37;;;;;;;;;3.75;3.75;;;;;19.23;46.34;101087.63;5041281;28;59838;-77
2021/11/05 01:29:06;;;;;;;;;6.75;4.50;;;;;19.19;46.70;101092.09;5041528;28;45444;-77
2021/11/05 01:31:33;;;;;;;;;6.25;5.00;;;;;19.13;46.54;101075.47;5057971;28;55125;-76
2021/11/05 01:33:59;;;;;;;;;6.25;6.25;;;;;19.19;46.48;101093.84;5059560;28;45445;-77
2021/11/05 01:36:33;;;;;;;;;7.00;5.00;;;;;19.19;46.86;101099.16;5041588;28;45454;-77
2021/11/05 01:39:06;;;;;;;;;7.25;5.50;;;;;19.16;47.14;101092.16;5058312;28;45577;-77
2021/11/05 01:41:31;;;;;;;;;6.50;4.75;;;;;19.16;46.97;101101.88;5042358;28;47477;-77
2021/11/05 01:44:06;;;;;;;;;7.50;6.75;;;;;19.15;46.96;101106.28;5041534;28;45431;-77
2021/11/05 01:46:41;;;;;;;;;8.50;6.00;;;;;19.13;47.23;101107.25;5041289;28;45423;-77
2021/11/05 01:49:09;;;;;;;;;8.00;6.25;;;;;19.13;46.57;101110.75;5059712;28;45355;-77
2021/11/05 01:51:38;;;;;;;;;4.25;4.00;;;;;19.13;47.36;101110.75;5061774;28;46954;-77
2021/11/05 01:54:06;;;;;;;;;5.75;5.25;;;;;19.10;47.37;101105.50;5062610;28;45437;-77
2021/11/05 01:56:32;;;;;;;;;7.25;5.75;;;;;19.08;46.89;101107.31;5045381;28;45266;-77
2021/11/05 01:58:57;;;;;;;;;9.50;7.00;;;;;19.08;46.96;101117.03;5061360;28;45422;-77
2021/11/05 02:01:22;;;;;;;;;4.00;4.00;;;;;19.07;46.58;101117.94;5060546;28;65869;-77
2021/11/05 02:03:50;;;;;;;;;5.75;5.00;;;;;19.06;46.95;101116.19;5060792;28;61181;-77
2021/11/05 02:06:17;;;;;;;;;7.00;4.75;;;;;19.06;46.87;101121.47;5044975;28;45442;-77
2021/11/05 02:08:43;;;;;;;;;5.25;3.75;;;;;19.08;47.13;101123.19;5048209;28;45471;-77
2021/11/05 02:11:08;;;;;;;;;5.75;5.75;;;;;19.10;47.00;101124.03;5062459;28;45927;-77
2021/11/05 02:13:34;;;;;;;;;6.50;6.50;;;;;19.13;46.90;101123.09;5060614;28;64392;-77
2021/11/05 02:16:00;;;;;;;;;6.50;5.50;;;;;19.13;47.00;101131.91;5044786;28;45293;-77
2021/11/05 02:18:26;;;;;;;;;6.00;5.50;;;;;19.14;47.25;101125.72;5044331;28;45379;-77
2021/11/05 02:20:55;;;;;;;;;6.00;4.25;;;;;19.14;46.69;101130.13;5061152;28;45397;-77
2021/11/05 02:23:22;;;;;;;;;4.50;4.50;;;;;19.13;47.00;101126.63;5061128;28;45257;-77
2021/11/05 02:25:47;;;;;;;;;5.00;5.00;;;;;19.13;46.79;101137.22;5044805;28;45349;-77
2021/11/05 02:28:13;;;;;;;;;3.75;3.75;;;;;19.12;47.16;101132.81;5044477;28;45372;-77
2021/11/05 02:30:38;;;;;;;;;4.75;4.75;;;;;19.12;46.61;101135.47;5044127;28;47199;-77
2021/11/05 02:33:03;;;;;;;;;4.25;4.00;;;;;19.13;46.97;101139.84;5057755;28;45360;-77
2021/11/05 02:35:29;;;;;;;;;4.75;4.00;;;;;19.14;46.77;101143.38;5044042;28;45357;-76
2021/11/05 02:37:54;;;;;;;;;7.75;5.00;;;;;19.14;46.49;101141.59;5077965;28;45417;-76
2021/11/05 02:40:20;;;;;;;;;7.50;6.00;;;;;19.11;47.03;101143.41;5043792;28;51882;-76
2021/11/05 02:42:45;;;;;;;;;8.25;4.00;;;;;19.09;46.70;101145.22;5043943;28;45324;-76
2021/11/05 02:45:11;;;;;;;;;6.00;5.00;;;;;19.06;47.14;101148.81;5060686;28;45262;-77
2021/11/05 02:47:36;;;;;;;;;3.75;3.75;;;;;19.04;46.73;101150.63;5027397;28;45560;-76
2021/11/05 02:50:08;;;;;;;;;4.00;4.00;;;;;19.02;46.64;101140.94;5077488;28;48061;-76
2021/11/05 02:52:34;;;;;;;;;4.25;4.25;;;;;19.02;47.49;101151.53;5060677;28;45396;-76
2021/11/05 02:54:59;;;;;;;;;7.25;5.50;;;;;19.01;47.33;101155.94;5027117;28;45316;-76
2021/11/05 02:57:25;;;;;;;;;7.25;5.75;;;;;18.99;47.20;101155.09;5061233;28;54113;-75
2021/11/05 02:59:50;;;;;;;;;2.75;2.75;;;;;18.98;47.09;101149.84;5061327;28;53796;-76
2021/11/05 03:02:16;;;;;;;;;3.50;3.50;;;;;18.93;47.04;101160.50;5059997;28;45457;-76
2021/11/05 03:04:41;;;;;;;;;3.25;3.25;;;;;18.92;47.32;101159.63;5043416;28;45363;-75
2021/11/05 03:07:13;;;;;;;;;6.00;5.00;;;;;18.94;47.26;101162.28;5060189;28;59354;-76
2021/11/05 03:09:39;;;;;;;;;4.25;3.75;;;;;18.93;47.20;101165.78;5061089;28;60925;-76
2021/11/05 03:12:05;;;;;;;;;5.50;3.50;;;;;18.91;46.74;101171.13;5060805;28;45312;-76
2021/11/05 03:14:30;;;;;;;;;13.25;5.25;;;;;18.93;47.53;101173.72;5043295;28;45431;-76
2021/11/05 03:16:56;;;;;;;;;4.25;4.00;;;;;18.92;47.73;101166.69;5060551;28;45409;-76
2021/11/05 03:19:21;;;;;;;;;5.50;4.25;;;;;18.95;46.82;101173.72;5043186;28;45422;-76
2021/11/05 03:21:47;;;;;;;;;5.00;3.50;;;;;18.93;47.04;101182.53;5060498;28;45489;-76
2021/11/05 03:24:12;;;;;;;;;5.00;4.75;;;;;18.94;47.34;101183.44;5050972;28;46002;-76
2021/11/05 03:26:38;;;;;;;;;8.00;4.50;;;;;18.98;47.18;101189.53;5043816;28;45492;-75
2021/11/05 03:29:03;;;;;;;;;6.25;3.75;;;;;19.00;47.56;101183.31;5059985;28;46187;-76
2021/11/05 03:31:29;;;;;;;;;4.75;4.75;;;;;19.01;46.85;101190.34;5043564;28;45170;-75
2021/11/05 03:33:54;;;;;;;;;5.75;3.25;;;;;19.02;46.91;101192.06;5036558;28;45249;-75
2021/11/05 03:36:20;;;;;;;;;4.00;4.00;;;;;19.01;46.92;101195.63;5043095;28;45491;-76
2021/11/05 03:38:49;;;;;;;;;2.25;1.25;;;;;19.03;47.12;101191.19;5042699;28;60636;-75
2021/11/05 03:41:14;;;;;;;;;4.25;4.00;;;;;19.03;46.71;101185.91;5043264;28;45490;-76
2021/11/05 03:43:39;;;;;;;;;3.50;2.75;;;;;19.10;46.49;101198.09;5043124;28;45252;-75
2021/11/05 03:46:06;;;;;;;;;3.25;2.75;;;;;19.11;46.61;101198.97;5042687;28;59007;-75
2021/11/05 03:48:35;;;;;;;;;3.50;3.50;;;;;19.10;46.29;101202.53;5043072;28;45566;-76
2021/11/05 03:51:01;;;;;;;;;3.00;3.00;;;;;19.08;46.55;101215.78;5059774;28;45297;-76
2021/11/05 03:53:26;;;;;;;;;5.00;4.25;;;;;19.07;46.56;101221.97;5060960;28;45223;-75
2021/11/05 03:55:51;;;;;;;;;4.75;2.75;;;;;19.08;46.65;101225.50;5061290;28;62393;-76
2021/11/05 03:58:17;;;;;;;;;3.50;3.50;;;;;19.07;47.21;101226.41;5060748;28;45420;-76
2021/11/05 04:00:42;;;;;;;;;4.50;4.50;;;;;19.05;46.59;101223.78;5060299;28;60861;-75
2021/11/05 04:03:08;;;;;;;;;4.75;3.75;;;;;19.04;47.20;101231.75;5076532;28;45384;-76
2021/11/05 04:05:33;;;;;;;;;4.00;4.00;;;;;19.04;46.95;101232.63;5060513;28;47687;-76
2021/11/05 04:07:58;;;;;;;;;6.25;4.75;;;;;19.01;46.85;101230.00;5058986;28;64823;-76
2021/11/05 04:10:24;;;;;;;;;4.00;4.00;;;;;19.00;46.43;101243.28;5042764;28;45522;-77
2021/11/05 04:12:49;;;;;;;;;4.75;4.75;;;;;18.95;46.49;101238.06;5058308;28;45663;-75
2021/11/05 04:15:14;;;;;;;;;7.50;4.75;;;;;18.95;46.74;101250.44;5058759;28;62320;-76
2021/11/05 04:17:40;;;;;;;;;6.25;5.25;;;;;18.93;46.62;101253.94;5076082;28;47974;-76
2021/11/05 04:20:06;;;;;;;;;6.25;3.75;;;;;18.95;47.01;101264.53;5042370;28;45400;-76
2021/11/05 04:22:31;;;;;;;;;4.25;3.00;;;;;18.92;46.90;101269.84;5026111;28;45446;-76
2021/11/05 04:24:57;;;;;;;;;6.75;5.50;;;;;18.93;47.25;101268.94;5042690;28;45368;-76
2021/11/05 04:27:22;;;;;;;;;5.25;3.00;;;;;18.93;47.14;101266.31;5048925;28;52868;-76
2021/11/05 04:29:48;;;;;;;;;3.00;3.00;;;;;18.96;46.63;101276.84;5042358;28;45233;-76
2021/11/05 04:32:13;;;;;;;;;4.75;3.75;;;;;18.95;47.13;101268.94;5048930;28;45283;-76
2021/11/05 04:34:39;;;;;;;;;5.25;5.00;;;;;18.96;46.72;101282.16;5041835;28;45541;-76
2021/11/05 04:37:04;;;;;;;;;6.75;4.00;;;;;18.96;46.81;101282.16;5048508;28;45358;-76
2021/11/05 04:39:30;;;;;;;;;5.00;3.75;;;;;18.97;46.63;101290.94;5058768;28;45275;-76
2021/11/05 04:41:55;;;;;;;;;3.00;3.00;;;;;18.97;46.64;101288.31;5059350;28;45368;-76
2021/11/05 04:44:21;;;;;;;;;6.25;4.00;;;;;18.98;46.83;101296.22;5042369;28;45241;-76
2021/11/05 04:46:47;;;;;;;;;4.75;3.75;;;;;18.97;46.73;101302.41;5058819;28;48259;-76
2021/11/05 04:49:12;;;;;;;;;6.00;4.00;;;;;19.00;46.92;101301.47;5042113;28;45228;-76
2021/11/05 04:51:38;;;;;;;;;6.50;5.50;;;;;19.01;46.42;101306.72;5059024;28;45310;-76
2021/11/05 04:54:03;;;;;;;;;4.00;3.00;;;;;19.01;46.61;101306.72;5058566;28;46651;-76
2021/11/05 04:56:29;;;;;;;;;2.75;2.25;;;;;19.02;46.60;101312.88;5092690;27;47244;-76
2021/11/05 04:58:54;;;;;;;;;3.75;3.75;;;;;19.01;46.92;101316.44;5058313;28;53097;-76
2021/11/05 05:01:20;;;;;;;;;5.50;4.50;;;;;19.02;46.29;101316.41;5058881;28;45273;-76
2021/11/05 05:03:47;;;;;;;;;4.75;3.75;;;;;19.03;46.00;101314.66;5059938;28;45354;-76
2021/11/05 05:06:12;;;;;;;;;5.25;4.50;;;;;19.03;46.70;101319.97;5042223;28;45365;-76
2021/11/05 05:08:39;;;;;;;;;4.50;4.50;;;;;19.03;46.17;101319.97;5041533;28;52255;-76
2021/11/05 05:11:04;;;;;;;;;5.25;3.75;;;;;19.03;46.41;101328.78;5059126;28;45277;-76
2021/11/05 05:13:30;;;;;;;;;3.00;3.00;;;;;19.03;46.01;101327.91;5041589;28;51061;-76
2021/11/05 05:15:55;;;;;;;;;2.25;2.25;;;;;19.05;46.15;101332.25;5024517;28;61596;-76
2021/11/05 05:18:20;;;;;;;;;4.00;4.00;;;;;19.05;46.60;101329.59;5058596;28;47149;-76
2021/11/05 05:20:46;;;;;;;;;4.75;4.25;;;;;19.07;46.10;101329.56;5047950;28;48077;-76
2021/11/05 05:23:11;;;;;;;;;3.00;3.00;;;;;19.08;46.46;101333.97;5058141;28;45305;-76
2021/11/05 05:25:37;;;;;;;;;6.50;3.50;;;;;19.07;46.74;101338.38;5028300;28;58209;-76
2021/11/05 05:28:03;;;;;;;;;7.25;5.75;;;;;19.07;46.36;101345.44;5045436;28;45280;-76
2021/11/05 05:30:28;;;;;;;;;6.25;4.00;;;;;19.08;46.78;101333.97;5045536;28;45385;-76
2021/11/05 05:32:53;;;;;;;;;7.50;4.00;;;;;19.08;46.83;101339.25;5061669;28;53768;-76
2021/11/05 05:35:19;;;;;;;;;5.00;3.00;;;;;19.09;46.47;101341.00;5044730;28;47202;-76
2021/11/05 05:37:44;;;;;;;;;3.75;2.75;;;;;19.10;46.24;101351.56;5061592;28;47426;-76
2021/11/05 05:40:10;;;;;;;;;5.00;4.75;;;;;19.08;46.28;101352.47;5045510;28;45439;-76
2021/11/05 05:42:36;;;;;;;;;3.75;3.75;;;;;19.06;46.49;101351.66;5044957;28;45537;-76
2021/11/05 05:45:01;;;;;;;;;5.00;3.00;;;;;19.06;46.14;101356.94;5061788;28;48028;-76
2021/11/05 05:47:26;;;;;;;;;3.25;3.25;;;;;19.04;46.03;101356.09;5044797;28;45462;-76
2021/11/05 05:49:52;;;;;;;;;5.00;4.00;;;;;19.03;46.63;101365.81;5044785;28;45331;-75
2021/11/05 05:52:18;;;;;;;;;5.00;3.25;;;;;19.04;46.93;101370.19;5062818;28;45403;-76
2021/11/05 05:54:43;;;;;;;;;4.00;4.00;;;;;19.06;46.08;101367.53;5041240;28;47215;-74
2021/11/05 05:57:09;;;;;;;;;4.25;3.75;;;;;19.06;46.90;101372.81;5060023;28;45775;-75
2021/11/05 05:59:35;;;;;;;;;4.50;3.75;;;;;19.04;46.76;101370.19;5049145;28;45259;-75
2021/11/05 06:02:00;;;;;;;;;4.25;3.00;;;;;19.03;45.35;101359.63;5042543;28;45324;-76
2021/11/05 06:04:26;;;;;;;;;4.00;4.00;;;;;19.04;45.97;101370.19;5044477;28;47068;-76
2021/11/05 06:06:52;;;;;;;;;4.50;4.50;;;;;19.05;46.38;101377.22;5047435;28;45427;-76
2021/11/05 06:09:24;;;;;;;;;4.75;4.75;;;;;19.06;46.38;101384.25;5044997;28;45400;-78
2021/11/05 06:11:49;;;;;;;;;6.00;4.25;;;;;19.07;46.37;101385.13;5029054;28;45670;-76
2021/11/05 06:14:15;;;;;;;;;5.25;4.25;;;;;19.08;45.80;101390.41;5094979;27;52968;-77
2021/11/05 06:16:41;;;;;;;;;5.00;3.50;;;;;19.08;45.69;101392.16;5060923;28;45272;-75
2021/11/05 06:19:06;;;;;;;;;4.50;3.75;;;;;19.07;45.95;101406.31;5044733;28;45257;-77
2021/11/05 06:21:35;;;;;;;;;4.75;3.75;;;;;19.08;46.10;101405.41;5059174;28;45923;-74
2021/11/05 06:24:00;;;;;;;;;2.50;2.50;;;;;19.11;45.87;101406.25;5044841;28;45427;-76
2021/11/05 06:26:25;;;;;;;;;4.75;3.50;;;;;19.17;46.29;101406.13;5044427;28;45339;-77
2021/11/05 06:28:51;;;;;;;;;6.75;4.00;;;;;19.23;45.97;101406.94;5060231;28;57707;-79
2021/11/05 06:31:16;;;;;;;;;3.00;3.00;;;;;19.25;46.02;101410.44;5061897;28;46838;-75
2021/11/05 06:33:42;;;;;;;;;4.25;4.25;;;;;19.25;46.16;101415.72;5060723;28;45320;-77
2021/11/05 06:36:10;;;;;;;;;7.25;4.75;;;;;19.26;46.26;101420.13;5044321;28;45408;-73
2021/11/05 06:38:36;;;;;;;;;8.25;3.75;;;;;19.26;46.53;101431.56;5044796;28;45305;-72
2021/11/05 06:41:01;;;;;;;;;9.00;4.75;;;;;19.29;45.89;101433.31;5061825;28;45249;-72
2021/11/05 06:43:27;;;;;;;;;8.00;4.75;;;;;19.30;45.99;101441.22;5057671;28;47422;-72
2021/11/05 06:45:52;;;;;;;;;5.00;4.00;;;;;19.31;46.65;101436.81;5058752;28;45280;-73
2021/11/05 06:48:17;;;;;;;;;3.00;2.75;;;;;19.34;46.29;101432.34;5043628;28;45470;-73
2021/11/05 06:50:44;;;;;;;;;3.25;3.25;;;;;19.37;47.00;101444.63;5035417;28;57203;-74
2021/11/05 06:53:10;;;;;;;;;4.25;3.00;;;;;19.43;46.13;101452.50;5043177;28;45433;-74
2021/11/05 06:55:36;;;;;;;;;3.75;3.00;;;;;19.44;46.19;101448.94;5077262;27;45508;-74
2021/11/05 06:58:02;;;;;;;;;6.00;2.75;;;;;19.46;45.99;101455.97;5044149;28;45537;-74
2021/11/05 07:00:27;;;;;;;;;5.00;4.00;;;;;19.47;46.20;101465.66;5060319;28;45558;-75
2021/11/05 07:02:53;;;;;;;;;4.00;3.00;;;;;19.46;45.87;101468.34;5059874;28;46637;-74
2021/11/05 07:05:19;;;;;;;;;3.00;3.00;;;;;19.45;45.54;101475.38;5060212;28;45344;-74
2021/11/05 07:07:45;;;;;;;;;4.50;3.00;;;;;19.43;45.51;101479.84;5027053;28;45367;-74
2021/11/05 07:10:11;;;;;;;;;3.75;3.00;;;;;19.42;45.49;101483.38;5043624;28;45424;-73
2021/11/05 07:12:38;;;;;;;;;5.75;3.00;;;;;19.41;45.35;101481.63;5026919;28;47232;-76
2021/11/05 07:15:04;;;;;;;;;4.00;3.00;;;;;19.41;44.79;101486.06;5055243;28;45848;-75
2021/11/05 07:17:29;;;;;;;;;4.25;3.00;;;;;19.41;45.46;101491.34;5055060;28;45484;-74
2021/11/05 07:19:55;;;;;;;;;3.00;2.75;;;;;19.41;44.86;101494.00;5091457;27;45426;-74
2021/11/05 07:22:20;;;;;;;;;2.50;2.50;;;;;19.40;44.99;101497.56;5057951;28;46513;-73
2021/11/05 07:24:46;;;;;;;;;3.75;2.75;;;;;19.38;44.80;101505.53;5056165;28;45420;-72
2021/11/05 07:27:11;;;;;;;;;3.25;3.25;;;;;19.39;44.68;101514.34;5035071;28;45358;-76
2021/11/05 07:29:37;;;;;;;;;2.25;2.25;;;;;19.39;44.73;101516.97;5061119;28;45343;-74
2021/11/05 07:32:06;;;;;;;;;3.50;3.00;;;;;19.38;44.94;101524.06;5067262;28;46249;-74
2021/11/05 07:34:32;;;;;;;;;4.00;4.00;;;;;19.40;44.50;101522.25;5061747;28;45276;-72
2021/11/05 07:37:01;;;;;;;;;3.50;2.00;;;;;19.42;44.77;101528.38;5028301;28;45184;-72
2021/11/05 07:39:27;;;;;;;;;3.00;2.25;;;;;19.44;44.39;101531.88;5059956;28;45462;-72
2021/11/05 07:41:52;;;;;;;;;3.00;3.00;;;;;19.45;44.62;101538.03;5043120;28;45319;-71
2021/11/05 07:44:18;;;;;;;;;4.50;4.25;;;;;19.47;44.10;101539.78;5058947;28;62830;-72
2021/11/05 07:46:45;;;;;;;;;2.00;2.00;;;;;19.49;44.36;101548.59;5042944;28;45229;-71
2021/11/05 07:49:11;;;;;;;;;4.75;4.00;;;;;19.49;44.01;101548.59;5043060;28;45652;-71
2021/11/05 07:51:36;;;;;;;;;2.00;2.00;;;;;19.51;43.86;101553.84;5059751;28;47844;-71
2021/11/05 07:54:05;;;;;;;;;3.00;1.25;;;;;19.53;43.86;101551.19;5059396;28;46267;-71
2021/11/05 07:56:30;;;;;;;;;3.50;2.00;;;;;19.53;44.13;101553.81;5043460;28;45456;-71
2021/11/05 07:58:56;;;;;;;;;3.00;2.00;;;;;19.52;43.88;101554.72;5042795;28;45571;-71
2021/11/05 08:01:22;;;;;;;;;1.00;1.00;;;;;19.53;43.91;101565.28;5026062;28;47023;-72
2021/11/05 08:03:49;;;;;;;;;3.25;2.00;;;;;19.54;43.80;101582.03;5043094;28;45218;-72
2021/11/05 08:06:15;;;;;;;;;2.00;2.00;;;;;19.53;43.71;101580.31;5059629;28;45319;-71
2021/11/05 08:08:41;;;;;;;;;1.25;1.25;;;;;19.54;43.51;101587.34;5042801;28;45185;-71
2021/11/05 08:11:06;;;;;;;;;4.75;3.25;;;;;19.51;43.46;101577.69;5059668;28;46140;-72
2021/11/05 08:13:32;;;;;;;;;3.50;3.50;;;;;19.52;43.70;101581.19;5060644;28;57631;-72
2021/11/05 08:16:00;;;;;;;;;1.75;1.50;;;;;19.51;43.70;101584.75;5048605;28;45245;-73
2021/11/05 08:18:29;;;;;;;;;3.75;2.00;;;;;19.51;43.53;101598.00;5042157;28;46279;-71
2021/11/05 08:20:54;;;;;;;;;2.75;2.75;;;;;19.47;43.24;101592.75;5026648;28;46136;-72
2021/11/05 08:23:20;;;;;;;;;6.25;3.75;;;;;19.48;43.16;101601.56;5058849;28;57195;-72
2021/11/05 08:25:47;;;;;;;;;4.00;3.25;;;;;19.50;43.30;101607.72;5059335;28;45490;-72
2021/11/05 08:28:16;;;;;;;;;4.50;3.50;;;;;19.50;43.14;101610.34;5059330;28;45581;-72
2021/11/05 08:30:41;;;;;;;;;4.00;4.00;;;;;19.51;42.83;101609.44;5042798;28;45415;-71
2021/11/05 08:33:06;;;;;;;;;4.00;4.00;;;;;19.51;43.05;101611.22;5025783;28;45461;-72
2021/11/05 08:35:32;;;;;;;;;5.50;2.75;;;;;19.49;43.49;101606.84;5049413;28;56558;-71
2021/11/05 08:37:58;;;;;;;;;5.00;3.00;;;;;19.52;43.14;101613.84;5059235;28;45469;-72
2021/11/05 08:40:23;;;;;;;;;5.25;5.25;;;;;19.53;42.75;101627.97;5042290;28;46116;-72
2021/11/05 08:42:49;;;;;;;;;5.25;4.25;;;;;19.54;43.20;101627.06;5060512;28;45661;-72
2021/11/05 08:45:14;;;;;;;;;4.00;3.75;;;;;19.57;43.31;101624.44;5059121;28;45289;-71
2021/11/05 08:47:41;;;;;;;;;7.00;5.00;;;;;19.59;42.99;101634.09;5042258;28;45678;-72
2021/11/05 08:50:18;;;;;;;;;7.00;4.00;;;;;19.61;42.71;101627.00;5058613;28;45920;-71
2021/11/05 08:52:44;;;;;;;;;4.50;4.00;;;;;19.65;42.72;101638.44;5043677;28;45301;-71
2021/11/05 08:55:09;;;;;;;;;3.75;3.75;;;;;19.65;42.55;101643.72;5042188;28;45402;-71
2021/11/05 08:57:35;;;;;;;;;5.25;2.00;;;;;19.66;42.49;101640.19;5059034;28;45434;-72
2021/11/05 09:00:01;;;;;;;;;5.25;2.75;;;;;19.68;42.67;101651.63;5040966;28;45357;-72
2021/11/05 09:02:27;;;;;;;;;3.75;3.75;;;;;19.70;42.38;101653.34;5042299;28;45443;-72
2021/11/05 09:04:52;;;;;;;;;4.75;3.00;;;;;19.70;42.69;101648.06;5041801;28;45453;-72
2021/11/05 09:07:18;;;;;;;;;4.00;3.25;;;;;19.72;42.48;101656.88;5042291;28;45319;-72
2021/11/05 09:09:43;;;;;;;;;4.00;4.00;;;;;19.71;42.69;101660.38;5075276;28;47270;-72
2021/11/05 09:12:09;;;;;;;;;4.50;3.00;;;;;19.70;42.20;101661.28;5041991;28;45383;-72
2021/11/05 09:14:34;;;;;;;;;3.25;3.25;;;;;19.70;42.35;101666.59;5025164;28;45355;-73
2021/11/05 09:17:00;;;;;;;;;4.00;4.00;;;;;19.69;42.17;101663.97;5043920;28;45527;-72
2021/11/05 09:19:25;;;;;;;;;6.00;5.75;;;;;19.67;42.15;101674.59;5053562;28;46990;-72
2021/11/05 09:21:50;;;;;;;;;5.00;3.75;;;;;19.67;42.12;101671.94;5043704;28;47105;-72
2021/11/05 09:24:16;;;;;;;;;3.75;3.75;;;;;19.65;42.05;101679.03;5025432;28;45238;-72
2021/11/05 09:26:41;;;;;;;;;3.00;3.00;;;;;19.67;42.09;101687.84;5043331;28;45269;-72
2021/11/05 09:29:07;;;;;;;;;4.00;4.00;;;;;19.67;42.08;101686.97;5053295;28;46438;-72
2021/11/05 09:31:32;;;;;;;;;3.00;3.00;;;;;19.65;41.76;101692.28;5075226;28;45279;-72
2021/11/05 09:33:58;;;;;;;;;3.75;2.00;;;;;19.63;42.04;101691.41;5058451;28;45240;-72
2021/11/05 09:36:29;;;;;;;;;2.75;2.75;;;;;19.64;41.73;101689.66;5058515;28;45529;-73
2021/11/05 09:38:56;;;;;;;;;3.75;3.00;;;;;19.64;42.04;101687.00;5058224;28;46420;-73
2021/11/05 09:41:21;;;;;;;;;3.50;3.50;;;;;19.64;42.20;101695.81;5041787;28;45359;-70
2021/11/05 09:43:46;;;;;;;;;4.25;3.00;;;;;19.65;41.88;101704.66;5041185;28;53376;-70
2021/11/05 09:46:12;;;;;;;;;4.00;3.00;;;;;19.66;41.85;101701.09;5040544;28;66622;-71
2021/11/05 09:48:38;;;;;;;;;5.00;3.00;;;;;19.67;41.88;101708.16;5040581;28;63246;-71
2021/11/05 09:51:08;;;;;;;;;3.50;3.50;;;;;19.66;41.99;101715.22;5058066;28;45361;-70
2021/11/05 09:53:36;;;;;;;;;3.00;3.00;;;;;19.67;42.09;101716.97;5041128;28;45306;-70
2021/11/05 09:56:01;;;;;;;;;5.25;4.00;;;;;19.68;41.81;101716.06;5041834;28;45522;-71
2021/11/05 09:58:27;;;;;;;;;5.25;5.25;;;;;19.74;41.94;101717.78;5041075;28;45820;-71
2021/11/05 10:00:52;;;;;;;;;4.75;4.00;;;;;19.79;42.03;101720.34;5058264;28;45259;-71
2021/11/05 10:03:17;;;;;;;;;4.50;3.75;;;;;19.85;41.94;101725.56;5057724;28;51596;-71
2021/11/05 10:05:43;;;;;;;;;6.50;5.00;;;;;19.90;41.79;101723.75;5043427;28;45518;-71
2021/11/05 10:08:08;;;;;;;;;6.50;5.00;;;;;19.95;41.35;101732.50;5036239;28;57335;-71
2021/11/05 10:10:40;;;;;;;;;3.25;2.25;;;;;19.98;41.36;101737.72;5043290;28;45550;-71
2021/11/05 10:13:09;;;;;;;;;4.75;4.25;;;;;20.01;41.51;101737.72;5061324;28;45347;-71
2021/11/05 10:15:55;;;;;;;;;5.00;3.75;;;;;20.02;41.05;101744.75;5061138;28;45613;-71
2021/11/05 10:18:32;;;;;;;;;6.75;4.50;;;;;20.02;41.11;101748.28;5061038;28;45390;-71
2021/11/05 10:21:14;;;;;;;;;2.00;2.00;;;;;20.02;40.98;101752.72;5062410;28;45381;-71
2021/11/05 10:23:42;;;;;;;;;6.00;6.00;;;;;20.03;40.90;101757.97;5044845;28;45468;-71
2021/11/05 10:26:27;;;;;;;;;4.50;2.25;;;;;20.03;40.79;101754.47;5061470;28;45900;-71
2021/11/05 10:28:53;;;;;;;;;2.75;2.75;;;;;20.03;41.05;101752.69;5047078;28;46356;-71
2021/11/05 10:31:18;;;;;;;;;3.75;2.75;;;;;20.03;40.50;101752.69;5060938;28;45438;-72
2021/11/05 10:33:48;;;;;;;;;8.50;5.00;;;;;19.99;40.88;101748.34;5044083;28;51437;-72
2021/11/05 10:36:15;;;;;;;;;6.00;3.75;;;;;19.98;41.30;101756.28;5044443;28;45293;-72
2021/11/05 10:38:46;;;;;;;;;4.00;3.00;;;;;19.99;40.56;101760.72;5044290;28;47155;-72
2021/11/05 10:41:15;;;;;;;;;4.50;4.50;;;;;19.99;40.98;101763.38;5044355;28;46110;-72
2021/11/05 10:43:43;;;;;;;;;5.25;4.75;;;;;19.97;40.76;101760.72;5044763;28;45350;-72
2021/11/05 10:46:22;;;;;;;;;5.50;4.25;;;;;19.98;40.79;101764.22;5044368;28;45885;-72
2021/11/05 10:48:48;;;;;;;;;8.25;5.50;;;;;19.96;41.01;101760.72;5090586;27;48162;-72
2021/11/05 10:51:13;;;;;;;;;8.00;5.00;;;;;19.96;40.57;101766.03;5043220;28;62096;-72
2021/11/05 10:53:40;;;;;;;;;2.75;2.75;;;;;19.97;40.72;101767.78;5050602;28;50853;-71
2021/11/05 10:56:12;;;;;;;;;5.25;3.75;;;;;19.95;40.57;101765.16;5048808;28;45446;-72
2021/11/05 10:58:39;;;;;;;;;5.25;4.00;;;;;19.94;40.75;101767.84;5044487;28;45616;-72
2021/11/05 11:01:06;;;;;;;;;4.25;4.25;;;;;19.93;40.96;101768.72;5060734;28;45350;-72
2021/11/05 11:03:38;;;;;;;;;5.75;4.00;;;;;19.94;40.76;101774.00;5060853;28;45402;-72
2021/11/05 11:06:13;;;;;;;;;4.00;3.00;;;;;19.93;41.15;101766.97;5044317;28;45275;-72
2021/11/05 11:08:43;;;;;;;;;6.25;5.50;;;;;19.94;40.62;101767.84;5043581;28;47220;-72
2021/11/05 11:11:28;;;;;;;;;2.75;2.75;;;;;19.94;40.58;101773.13;5044166;28;45869;-72
2021/11/05 11:13:58;;;;;;;;;4.00;4.00;;;;;19.93;40.63;101766.09;5043628;28;45371;-72
2021/11/05 11:16:33;;;;;;;;;2.50;2.50;;;;;19.93;40.37;101766.09;5061537;28;45228;-72
2021/11/05 11:19:06;;;;;;;;;4.00;3.25;;;;;19.91;40.50;101767.88;5060123;28;46226;-72
2021/11/05 11:21:33;;;;;;;;;4.50;4.25;;;;;19.92;40.48;101762.56;5043043;28;45336;-71
2021/11/05 11:23:58;;;;;;;;;4.25;4.00;;;;;19.95;41.01;101764.28;5060305;28;45437;-71
2021/11/05 11:26:24;;;;;;;;;5.25;4.50;;;;;19.98;40.39;101764.22;5043434;28;45249;-71